Terminal Aerodrome Forecast
Issued by NWS Austin/San Antonio, TX

Home | Current Version | Previous Version | Text Only | Print | Product List | Glossary On
Versions: 1 2 3 4 5 6 7 8 9 10 11 12 13 14 15 16 17 18 19 20 21 22 23
000
FTUS44 KEWX 210200 AAA
TAFSAT
TAF AMD
KSAT 210202Z 2102/2206 08005KT P6SM OVC024
     FM210600 09003KT P6SM OVC015
     FM210900 VRB03KT P6SM OVC007
     FM211700 19005KT P6SM OVC015
     FM212000 20006KT P6SM BKN025=

USA.gov is the U.S. government's official web portal to all federal, state and local government web resources and services.